Flight Track Log - Related Links

Times and Time Zones

All times are in EDT time to prevent confusion due to time zone crossing. See the EJA695 flight status page for this flight to view local times or setup timezone preferences in your user account.

Time Position Orientation Groundspeed Altitude Reporting Facility
EDT Latitude Longitude Course Direction KTS MPH feet Rate Location/Type
Thu 02:27:26 PM 38.4833 -121.3000 156° South 266 306 2,900  Level Northern Cal TRACON
Thu 02:28:14 PM 38.4667 -121.2428 110° East 260 299 3,400 2,312 Climbing Oakland Center
Thu 02:29:15 PM 38.4458 -121.1378 104° East 266 306 7,100 3,073 Climbing Oakland Center
Thu 02:30:17 PM 38.4003 -121.0614 127° Southeast 279 321 9,700 1,887 Climbing Oakland Center
Thu 02:31:19 PM 38.3383 -120.9839 136° Southeast 305 351 11,000 634 Climbing Oakland Center
Thu 02:32:00 PM 38.2740 -121.4375 156° South  Level FlightAware Approximate
Thu 02:32:20 PM 38.2567 -120.9225 149° Southeast 356 410 11,000  Level Oakland Center
Thu 02:33:22 PM 38.1614 -120.9256 181° South 342 394 11,000  Level Oakland Center
Thu 02:34:23 PM 38.0647 -120.9317 183° South 347 399 11,000  Level Oakland Center
Thu 02:35:25 PM 37.9786 -120.9372 183° South 311 358 11,000  Level Oakland Center
Thu 02:36:27 PM 37.8981 -120.9411 182° South 290 334 11,000 -439 Level Oakland Center
Thu 02:37:28 PM 37.8017 -120.9464 182° South 288 331 10,100 -927 Descending Oakland Center
Thu 02:38:30 PM 37.7272 -120.9525 184° South 276 318 9,100 -537 Descending Oakland Center
Thu 02:39:31 PM 37.6597 -120.9533 181° South 251 289 9,000 -49 Descending Oakland Center
Thu 02:40:33 PM 37.6000 -121.0000 212° Southwest 250 288 9,000  Level Northern Cal TRACON
Thu 02:41:33 PM 37.5500 -121.0667 227° Southwest 249 287 9,000  Level Northern Cal TRACON
Thu 02:42:33 PM 37.5167 -121.1333 238° Southwest 249 287 9,000 -381 Level Northern Cal TRACON
Thu 02:43:39 PM 37.4667 -121.2167 233° Southwest 246 283 8,200 -500 Descending Northern Cal TRACON
Thu 02:44:33 PM 37.4333 -121.2667 230° Southwest 247 284 8,000 -105 Descending Northern Cal TRACON
Thu 02:45:33 PM 37.3833 -121.3500 233° Southwest 286 329 8,000 -150 Level Northern Cal TRACON
Thu 02:46:33 PM 37.3333 -121.4333 233° Southwest 282 325 7,700 -595 Descending Northern Cal TRACON
Thu 02:47:44 PM 37.2761 -121.5147 229° Southwest 277 319 6,700 -722 Descending Oakland Center
Thu 02:48:46 PM 37.2289 -121.5892 231° Southwest 273 314 6,100 -290 Descending Oakland Center
Thu 02:49:48 PM 37.2219 -121.6747 264° West 283 326 6,100 -780 Level Oakland Center
Thu 02:50:49 PM 37.2406 -121.7547 286° West 249 287 4,500 -1,707 Descending Oakland Center
Thu 02:51:51 PM 37.2647 -121.8322 291° West 243 280 2,600 -1,548 Descending Oakland Center
Thu 02:52:53 PM 37.3144 -121.8750 326° Northwest 223 257 1,300 -1,122 Descending Oakland Center
Thu 02:53:54 PM 37.3442 -121.9128 315° West 181 208 300 -984 Descending Oakland Center
Thu 02:55:00 PM 37.3500 -121.9167 North  Level FlightAware Approximate
Thu 03:02:00 PM 37.3627 -121.9291 North  Level Estimated

Login

Don't have an account? Register now (free) for customized features, flight alerts, and more!